aviador You're here:

KBTL Decoded Metar

BATTLE CREEK in MI, USA
Report Time2017-08-20 12:53:00
UTC Time2017-08-20 13:41:01
Flight Rules vfr VFR
WindCalm
Visibility9999 m
Phenomena:N/A
Clouds:N/A
Expected CloudBase > 1,200 ft AGL from Temp-Dew spread
CeilingNone
Temp19°C (ISA +6)
Dew Point16°C (83% RH)
QNH1019 hPa
Density Alt1,683 ft
Elevation951 ft
Report Wrong Elevation
Raw Report
METAR KBTL 201253Z 00000KT 10SM CLR 19/16 A3010 RMK AO2 SLP188 T01890156=

Extra information for KBTL:More info

Metar Taf Metar & Taf Last 4 Metars F.Rules Stats Wind Profile Meteogram Temp Stats Airport Information Weather charts Add Link Nearby VenuesMetar ALERT Operation Metar Decoded Social comments

AIRNAV info for KBTL